sensor_id;sensor_type;location;lat;lon;timestamp;P1;durP1;ratioP1;P2;durP2;ratioP2
78288;SDS011;67539;48.752;12.922;2023-03-20T00:00:58;16.70;;;14.90;;
78288;SDS011;67539;48.752;12.922;2023-03-20T00:03:27;17.57;;;14.80;;
78288;SDS011;67539;48.752;12.922;2023-03-20T00:05:55;16.83;;;14.93;;
78288;SDS011;67539;48.752;12.922;2023-03-20T00:08:25;17.60;;;14.90;;
78288;SDS011;67539;48.752;12.922;2023-03-20T00:10:55;18.73;;;15.00;;
78288;SDS011;67539;48.752;12.922;2023-03-20T00:13:24;15.63;;;13.93;;
78288;SDS011;67539;48.752;12.922;2023-03-20T00:15:54;15.93;;;13.80;;
78288;SDS011;67539;48.752;12.922;2023-03-20T00:18:23;17.80;;;14.80;;
78288;SDS011;67539;48.752;12.922;2023-03-20T00:20:52;17.67;;;15.20;;
78288;SDS011;67539;48.752;12.922;2023-03-20T00:23:20;20.17;;;15.27;;
78288;SDS011;67539;48.752;12.922;2023-03-20T00:25:50;16.30;;;14.60;;
78288;SDS011;67539;48.752;12.922;2023-03-20T00:31:13;15.73;;;14.03;;
78288;SDS011;67539;48.752;12.922;2023-03-20T00:33:47;18.30;;;15.13;;
78288;SDS011;67539;48.752;12.922;2023-03-20T00:36:16;17.10;;;15.10;;
78288;SDS011;67539;48.752;12.922;2023-03-20T00:38:44;18.67;;;14.97;;
78288;SDS011;67539;48.752;12.922;2023-03-20T00:41:21;15.20;;;13.60;;
78288;SDS011;67539;48.752;12.922;2023-03-20T00:43:52;16.33;;;13.90;;
78288;SDS011;67539;48.752;12.922;2023-03-20T00:46:23;17.53;;;14.73;;
78288;SDS011;67539;48.752;12.922;2023-03-20T00:48:51;19.13;;;14.23;;
78288;SDS011;67539;48.752;12.922;2023-03-20T00:51:21;17.50;;;14.43;;
78288;SDS011;67539;48.752;12.922;2023-03-20T00:53:50;25.90;;;20.50;;
78288;SDS011;67539;48.752;12.922;2023-03-20T00:56:26;18.63;;;16.27;;
78288;SDS011;67539;48.752;12.922;2023-03-20T00:58:58;20.37;;;16.90;;
78288;SDS011;67539;48.752;12.922;2023-03-20T01:01:28;19.70;;;15.90;;
78288;SDS011;67539;48.752;12.922;2023-03-20T01:03:58;17.13;;;14.10;;
78288;SDS011;67539;48.752;12.922;2023-03-20T01:06:26;18.00;;;16.10;;
78288;SDS011;67539;48.752;12.922;2023-03-20T01:08:56;21.50;;;16.60;;
78288;SDS011;67539;48.752;12.922;2023-03-20T01:11:26;22.30;;;16.60;;
78288;SDS011;67539;48.752;12.922;2023-03-20T01:13:55;17.17;;;15.03;;
78288;SDS011;67539;48.752;12.922;2023-03-20T01:16:24;18.55;;;16.55;;
78288;SDS011;67539;48.752;12.922;2023-03-20T01:18:53;20.80;;;16.57;;
78288;SDS011;67539;48.752;12.922;2023-03-20T01:21:22;18.57;;;16.40;;
78288;SDS011;67539;48.752;12.922;2023-03-20T01:23:51;18.10;;;16.23;;
78288;SDS011;67539;48.752;12.922;2023-03-20T01:26:20;20.27;;;15.93;;
78288;SDS011;67539;48.752;12.922;2023-03-20T01:28:54;20.30;;;16.77;;
78288;SDS011;67539;48.752;12.922;2023-03-20T01:31:23;21.60;;;18.20;;
78288;SDS011;67539;48.752;12.922;2023-03-20T01:33:51;20.03;;;17.43;;
78288;SDS011;67539;48.752;12.922;2023-03-20T01:36:20;21.13;;;17.97;;
78288;SDS011;67539;48.752;12.922;2023-03-20T01:38:52;21.87;;;17.60;;
78288;SDS011;67539;48.752;12.922;2023-03-20T01:41:23;25.27;;;20.20;;
78288;SDS011;67539;48.752;12.922;2023-03-20T01:43:54;23.07;;;17.93;;
78288;SDS011;67539;48.752;12.922;2023-03-20T01:46:23;19.67;;;17.13;;
78288;SDS011;67539;48.752;12.922;2023-03-20T01:49:04;20.70;;;16.60;;
78288;SDS011;67539;48.752;12.922;2023-03-20T01:51:35;18.63;;;16.60;;
78288;SDS011;67539;48.752;12.922;2023-03-20T01:54:09;17.50;;;15.70;;
78288;SDS011;67539;48.752;12.922;2023-03-20T01:56:56;17.33;;;15.53;;
78288;SDS011;67539;48.752;12.922;2023-03-20T01:59:29;19.67;;;17.07;;
78288;SDS011;67539;48.752;12.922;2023-03-20T02:02:01;18.20;;;16.20;;
78288;SDS011;67539;48.752;12.922;2023-03-20T02:04:32;20.57;;;17.43;;
78288;SDS011;67539;48.752;12.922;2023-03-20T02:07:08;20.90;;;16.20;;
78288;SDS011;67539;48.752;12.922;2023-03-20T02:09:45;19.33;;;16.93;;
78288;SDS011;67539;48.752;12.922;2023-03-20T02:12:19;16.80;;;15.00;;
78288;SDS011;67539;48.752;12.922;2023-03-20T02:14:51;18.70;;;16.30;;
78288;SDS011;67539;48.752;12.922;2023-03-20T02:17:28;20.10;;;16.00;;
78288;SDS011;67539;48.752;12.922;2023-03-20T02:20:03;16.60;;;14.90;;
78288;SDS011;67539;48.752;12.922;2023-03-20T02:22:46;17.10;;;14.90;;
78288;SDS011;67539;48.752;12.922;2023-03-20T02:25:41;18.17;;;16.27;;
78288;SDS011;67539;48.752;12.922;2023-03-20T02:28:49;18.90;;;14.43;;
78288;SDS011;67539;48.752;12.922;2023-03-20T02:32:01;16.00;;;14.23;;
78288;SDS011;67539;48.752;12.922;2023-03-20T02:38:21;17.73;;;14.20;;
78288;SDS011;67539;48.752;12.922;2023-03-20T02:41:05;20.30;;;14.47;;
78288;SDS011;67539;48.752;12.922;2023-03-20T02:43:42;15.33;;;13.70;;
78288;SDS011;67539;48.752;12.922;2023-03-20T02:46:18;17.37;;;15.03;;
78288;SDS011;67539;48.752;12.922;2023-03-20T02:48:56;16.90;;;15.10;;
78288;SDS011;67539;48.752;12.922;2023-03-20T02:51:32;17.37;;;15.20;;
78288;SDS011;67539;48.752;12.922;2023-03-20T02:54:07;17.80;;;14.90;;
78288;SDS011;67539;48.752;12.922;2023-03-20T02:56:43;18.50;;;15.77;;
78288;SDS011;67539;48.752;12.922;2023-03-20T02:59:19;20.53;;;17.23;;
78288;SDS011;67539;48.752;12.922;2023-03-20T03:01:53;17.30;;;15.50;;
78288;SDS011;67539;48.752;12.922;2023-03-20T03:04:28;18.40;;;16.27;;
78288;SDS011;67539;48.752;12.922;2023-03-20T03:06:59;20.33;;;16.10;;
78288;SDS011;67539;48.752;12.922;2023-03-20T03:09:32;18.67;;;16.67;;
78288;SDS011;67539;48.752;12.922;2023-03-20T03:12:04;18.07;;;15.47;;
78288;SDS011;67539;48.752;12.922;2023-03-20T03:14:38;18.00;;;15.57;;
78288;SDS011;67539;48.752;12.922;2023-03-20T03:17:13;18.60;;;15.63;;
78288;SDS011;67539;48.752;12.922;2023-03-20T03:19:44;21.37;;;16.47;;
78288;SDS011;67539;48.752;12.922;2023-03-20T03:22:14;20.17;;;16.60;;
78288;SDS011;67539;48.752;12.922;2023-03-20T03:24:45;20.20;;;17.80;;
78288;SDS011;67539;48.752;12.922;2023-03-20T03:27:17;20.40;;;17.60;;
78288;SDS011;67539;48.752;12.922;2023-03-20T03:29:50;20.90;;;17.60;;
78288;SDS011;67539;48.752;12.922;2023-03-20T03:32:22;18.37;;;16.43;;
78288;SDS011;67539;48.752;12.922;2023-03-20T03:34:53;21.33;;;16.83;;
78288;SDS011;67539;48.752;12.922;2023-03-20T03:37:27;21.00;;;16.13;;
78288;SDS011;67539;48.752;12.922;2023-03-20T03:40:04;19.77;;;16.53;;
78288;SDS011;67539;48.752;12.922;2023-03-20T03:42:42;19.27;;;16.43;;
78288;SDS011;67539;48.752;12.922;2023-03-20T03:45:20;21.00;;;17.53;;
78288;SDS011;67539;48.752;12.922;2023-03-20T03:47:57;18.80;;;16.47;;
78288;SDS011;67539;48.752;12.922;2023-03-20T03:50:30;21.17;;;16.43;;
78288;SDS011;67539;48.752;12.922;2023-03-20T03:53:03;17.77;;;15.87;;
78288;SDS011;67539;48.752;12.922;2023-03-20T03:55:40;22.47;;;17.93;;
78288;SDS011;67539;48.752;12.922;2023-03-20T03:58:12;19.50;;;17.20;;
78288;SDS011;67539;48.752;12.922;2023-03-20T04:00:46;22.67;;;16.03;;
78288;SDS011;67539;48.752;12.922;2023-03-20T04:03:18;21.73;;;16.83;;
78288;SDS011;67539;48.752;12.922;2023-03-20T04:05:49;23.00;;;17.90;;
78288;SDS011;67539;48.752;12.922;2023-03-20T04:08:20;22.17;;;17.47;;
78288;SDS011;67539;48.752;12.922;2023-03-20T04:10:50;21.43;;;17.23;;
78288;SDS011;67539;48.752;12.922;2023-03-20T04:13:18;22.17;;;16.90;;
78288;SDS011;67539;48.752;12.922;2023-03-20T04:15:47;18.27;;;15.90;;
78288;SDS011;67539;48.752;12.922;2023-03-20T04:18:16;18.30;;;15.90;;
78288;SDS011;67539;48.752;12.922;2023-03-20T04:20:46;18.83;;;16.40;;
78288;SDS011;67539;48.752;12.922;2023-03-20T04:23:15;18.67;;;16.63;;
78288;SDS011;67539;48.752;12.922;2023-03-20T04:25:43;20.40;;;16.93;;
78288;SDS011;67539;48.752;12.922;2023-03-20T04:28:13;18.73;;;15.93;;
78288;SDS011;67539;48.752;12.922;2023-03-20T04:31:02;18.63;;;16.23;;
78288;SDS011;67539;48.752;12.922;2023-03-20T04:33:36;19.00;;;15.57;;
78288;SDS011;67539;48.752;12.922;2023-03-20T04:36:20;19.33;;;16.30;;
78288;SDS011;67539;48.752;12.922;2023-03-20T04:38:50;18.60;;;14.70;;
78288;SDS011;67539;48.752;12.922;2023-03-20T04:41:22;18.60;;;15.40;;
78288;SDS011;67539;48.752;12.922;2023-03-20T04:43:54;22.90;;;15.83;;
78288;SDS011;67539;48.752;12.922;2023-03-20T04:46:23;19.90;;;15.80;;
78288;SDS011;67539;48.752;12.922;2023-03-20T04:48:52;17.90;;;15.93;;
78288;SDS011;67539;48.752;12.922;2023-03-20T04:51:21;17.10;;;15.13;;
78288;SDS011;67539;48.752;12.922;2023-03-20T04:53:51;16.93;;;14.83;;
78288;SDS011;67539;48.752;12.922;2023-03-20T04:56:21;17.53;;;15.57;;
78288;SDS011;67539;48.752;12.922;2023-03-20T04:58:50;19.40;;;16.93;;
78288;SDS011;67539;48.752;12.922;2023-03-20T05:01:21;24.93;;;17.57;;
78288;SDS011;67539;48.752;12.922;2023-03-20T05:03:51;19.40;;;15.37;;
78288;SDS011;67539;48.752;12.922;2023-03-20T05:06:29;19.50;;;16.50;;
78288;SDS011;67539;48.752;12.922;2023-03-20T05:08:58;19.00;;;16.47;;
78288;SDS011;67539;48.752;12.922;2023-03-20T05:11:29;20.50;;;17.47;;
78288;SDS011;67539;48.752;12.922;2023-03-20T05:14:03;20.03;;;15.93;;
78288;SDS011;67539;48.752;12.922;2023-03-20T05:17:02;19.80;;;17.00;;
78288;SDS011;67539;48.752;12.922;2023-03-20T05:19:49;21.40;;;17.07;;
78288;SDS011;67539;48.752;12.922;2023-03-20T05:22:34;18.83;;;16.50;;
78288;SDS011;67539;48.752;12.922;2023-03-20T05:25:22;18.20;;;15.30;;
78288;SDS011;67539;48.752;12.922;2023-03-20T05:28:14;19.30;;;16.37;;
78288;SDS011;67539;48.752;12.922;2023-03-20T05:31:01;18.00;;;14.90;;
78288;SDS011;67539;48.752;12.922;2023-03-20T05:34:10;17.63;;;14.67;;
78288;SDS011;67539;48.752;12.922;2023-03-20T05:36:58;15.13;;;13.50;;
78288;SDS011;67539;48.752;12.922;2023-03-20T05:39:42;15.17;;;13.60;;
78288;SDS011;67539;48.752;12.922;2023-03-20T05:42:37;18.27;;;15.33;;
78288;SDS011;67539;48.752;12.922;2023-03-20T05:45:26;16.77;;;14.97;;
78288;SDS011;67539;48.752;12.922;2023-03-20T05:48:23;16.83;;;15.03;;
78288;SDS011;67539;48.752;12.922;2023-03-20T05:51:17;15.37;;;13.77;;
78288;SDS011;67539;48.752;12.922;2023-03-20T05:53:56;15.07;;;13.47;;
78288;SDS011;67539;48.752;12.922;2023-03-20T05:56:39;18.77;;;14.17;;
78288;SDS011;67539;48.752;12.922;2023-03-20T05:59:28;16.27;;;14.07;;
78288;SDS011;67539;48.752;12.922;2023-03-20T06:02:31;17.80;;;15.33;;
78288;SDS011;67539;48.752;12.922;2023-03-20T06:05:08;21.77;;;15.13;;
78288;SDS011;67539;48.752;12.922;2023-03-20T06:07:46;17.80;;;15.90;;
78288;SDS011;67539;48.752;12.922;2023-03-20T06:10:15;18.47;;;15.57;;
78288;SDS011;67539;48.752;12.922;2023-03-20T06:12:47;19.43;;;17.13;;
78288;SDS011;67539;48.752;12.922;2023-03-20T06:15:17;19.00;;;16.60;;
78288;SDS011;67539;48.752;12.922;2023-03-20T06:17:53;19.90;;;15.73;;
78288;SDS011;67539;48.752;12.922;2023-03-20T06:20:22;19.83;;;15.70;;
78288;SDS011;67539;48.752;12.922;2023-03-20T06:22:52;19.20;;;16.23;;
78288;SDS011;67539;48.752;12.922;2023-03-20T06:25:21;15.97;;;14.30;;
78288;SDS011;67539;48.752;12.922;2023-03-20T06:27:50;17.17;;;15.37;;
78288;SDS011;67539;48.752;12.922;2023-03-20T06:30:19;17.40;;;15.60;;
78288;SDS011;67539;48.752;12.922;2023-03-20T06:32:48;20.98;;;18.88;;
78288;SDS011;67539;48.752;12.922;2023-03-20T06:35:18;19.83;;;17.73;;
78288;SDS011;67539;48.752;12.922;2023-03-20T06:37:49;17.80;;;15.97;;
78288;SDS011;67539;48.752;12.922;2023-03-20T06:40:23;18.90;;;16.83;;
78288;SDS011;67539;48.752;12.922;2023-03-20T06:42:53;22.00;;;18.60;;
78288;SDS011;67539;48.752;12.922;2023-03-20T06:45:29;18.80;;;16.80;;
78288;SDS011;67539;48.752;12.922;2023-03-20T06:47:59;18.03;;;16.23;;
78288;SDS011;67539;48.752;12.922;2023-03-20T06:50:28;18.10;;;16.10;;
78288;SDS011;67539;48.752;12.922;2023-03-20T06:52:57;17.63;;;15.67;;
78288;SDS011;67539;48.752;12.922;2023-03-20T06:55:50;20.47;;;18.03;;
78288;SDS011;67539;48.752;12.922;2023-03-20T06:58:19;18.57;;;16.77;;
78288;SDS011;67539;48.752;12.922;2023-03-20T07:00:49;17.93;;;16.10;;
78288;SDS011;67539;48.752;12.922;2023-03-20T07:03:19;19.83;;;17.47;;
78288;SDS011;67539;48.752;12.922;2023-03-20T07:05:48;22.83;;;18.83;;
78288;SDS011;67539;48.752;12.922;2023-03-20T07:08:18;18.97;;;16.90;;
78288;SDS011;67539;48.752;12.922;2023-03-20T07:10:49;20.80;;;18.23;;
78288;SDS011;67539;48.752;12.922;2023-03-20T07:13:18;20.17;;;17.50;;
78288;SDS011;67539;48.752;12.922;2023-03-20T07:15:47;18.07;;;16.20;;
78288;SDS011;67539;48.752;12.922;2023-03-20T07:18:33;17.30;;;15.50;;
78288;SDS011;67539;48.752;12.922;2023-03-20T07:21:03;18.03;;;15.97;;
78288;SDS011;67539;48.752;12.922;2023-03-20T07:23:33;17.70;;;15.70;;
78288;SDS011;67539;48.752;12.922;2023-03-20T07:26:04;17.63;;;15.83;;
78288;SDS011;67539;48.752;12.922;2023-03-20T07:28:33;19.77;;;16.23;;
78288;SDS011;67539;48.752;12.922;2023-03-20T07:31:27;17.80;;;15.90;;
78288;SDS011;67539;48.752;12.922;2023-03-20T07:34:13;18.93;;;16.33;;
78288;SDS011;67539;48.752;12.922;2023-03-20T07:36:42;18.90;;;16.87;;
78288;SDS011;67539;48.752;12.922;2023-03-20T07:39:16;19.83;;;16.00;;
78288;SDS011;67539;48.752;12.922;2023-03-20T07:41:55;19.50;;;17.43;;
78288;SDS011;67539;48.752;12.922;2023-03-20T07:44:36;20.00;;;18.00;;
78288;SDS011;67539;48.752;12.922;2023-03-20T07:47:09;18.83;;;16.90;;
78288;SDS011;67539;48.752;12.922;2023-03-20T07:49:37;18.97;;;17.07;;
78288;SDS011;67539;48.752;12.922;2023-03-20T07:52:07;19.80;;;16.90;;
78288;SDS011;67539;48.752;12.922;2023-03-20T07:54:35;20.30;;;18.10;;
78288;SDS011;67539;48.752;12.922;2023-03-20T07:57:05;19.17;;;16.97;;
78288;SDS011;67539;48.752;12.922;2023-03-20T07:59:33;19.87;;;17.47;;
78288;SDS011;67539;48.752;12.922;2023-03-20T08:02:01;17.90;;;15.90;;
78288;SDS011;67539;48.752;12.922;2023-03-20T08:04:30;19.33;;;16.80;;
78288;SDS011;67539;48.752;12.922;2023-03-20T08:06:58;18.47;;;16.57;;
78288;SDS011;67539;48.752;12.922;2023-03-20T08:09:26;18.63;;;16.73;;
78288;SDS011;67539;48.752;12.922;2023-03-20T08:11:55;18.70;;;16.70;;
78288;SDS011;67539;48.752;12.922;2023-03-20T08:14:24;18.70;;;16.50;;
78288;SDS011;67539;48.752;12.922;2023-03-20T08:16:53;18.87;;;16.87;;
78288;SDS011;67539;48.752;12.922;2023-03-20T08:19:39;20.80;;;18.80;;
78288;SDS011;67539;48.752;12.922;2023-03-20T08:22:07;21.87;;;19.20;;
78288;SDS011;67539;48.752;12.922;2023-03-20T08:24:36;19.13;;;17.17;;
78288;SDS011;67539;48.752;12.922;2023-03-20T08:27:04;19.33;;;17.43;;
78288;SDS011;67539;48.752;12.922;2023-03-20T08:29:34;18.80;;;16.67;;
78288;SDS011;67539;48.752;12.922;2023-03-20T08:32:03;19.07;;;17.07;;
78288;SDS011;67539;48.752;12.922;2023-03-20T08:34:31;18.77;;;16.77;;
78288;SDS011;67539;48.752;12.922;2023-03-20T08:37:01;18.07;;;16.27;;
78288;SDS011;67539;48.752;12.922;2023-03-20T08:39:30;19.30;;;17.27;;
78288;SDS011;67539;48.752;12.922;2023-03-20T08:41:59;18.97;;;16.37;;
78288;SDS011;67539;48.752;12.922;2023-03-20T08:44:28;20.33;;;17.57;;
78288;SDS011;67539;48.752;12.922;2023-03-20T08:46:58;18.10;;;16.17;;
78288;SDS011;67539;48.752;12.922;2023-03-20T08:49:27;22.70;;;19.10;;
78288;SDS011;67539;48.752;12.922;2023-03-20T08:51:56;18.17;;;16.37;;
78288;SDS011;67539;48.752;12.922;2023-03-20T08:54:24;18.60;;;16.60;;
78288;SDS011;67539;48.752;12.922;2023-03-20T08:56:52;18.80;;;16.80;;
78288;SDS011;67539;48.752;12.922;2023-03-20T08:59:21;19.00;;;17.00;;
78288;SDS011;67539;48.752;12.922;2023-03-20T09:01:49;18.87;;;16.70;;
78288;SDS011;67539;48.752;12.922;2023-03-20T09:04:18;17.93;;;16.10;;
78288;SDS011;67539;48.752;12.922;2023-03-20T09:06:48;18.50;;;16.60;;
78288;SDS011;67539;48.752;12.922;2023-03-20T09:09:17;19.57;;;17.53;;
78288;SDS011;67539;48.752;12.922;2023-03-20T09:11:47;19.33;;;17.27;;
78288;SDS011;67539;48.752;12.922;2023-03-20T09:14:15;17.33;;;15.40;;
78288;SDS011;67539;48.752;12.922;2023-03-20T09:16:43;18.00;;;14.83;;
78288;SDS011;67539;48.752;12.922;2023-03-20T09:19:12;16.77;;;15.13;;
78288;SDS011;67539;48.752;12.922;2023-03-20T09:21:42;19.37;;;16.10;;
78288;SDS011;67539;48.752;12.922;2023-03-20T09:24:10;18.50;;;16.50;;
78288;SDS011;67539;48.752;12.922;2023-03-20T09:26:39;19.83;;;17.27;;
78288;SDS011;67539;48.752;12.922;2023-03-20T09:29:07;17.60;;;15.80;;
78288;SDS011;67539;48.752;12.922;2023-03-20T09:31:36;17.07;;;15.33;;
78288;SDS011;67539;48.752;12.922;2023-03-20T09:34:04;16.30;;;14.80;;
78288;SDS011;67539;48.752;12.922;2023-03-20T09:36:32;17.50;;;14.50;;
78288;SDS011;67539;48.752;12.922;2023-03-20T09:39:02;16.87;;;15.23;;
78288;SDS011;67539;48.752;12.922;2023-03-20T09:41:31;15.57;;;14.07;;
78288;SDS011;67539;48.752;12.922;2023-03-20T09:44:20;15.00;;;13.50;;
78288;SDS011;67539;48.752;12.922;2023-03-20T09:47:04;15.07;;;13.50;;
78288;SDS011;67539;48.752;12.922;2023-03-20T09:49:48;16.00;;;14.23;;
78288;SDS011;67539;48.752;12.922;2023-03-20T09:52:27;16.00;;;14.30;;
78288;SDS011;67539;48.752;12.922;2023-03-20T09:54:59;14.77;;;13.27;;
78288;SDS011;67539;48.752;12.922;2023-03-20T09:57:31;16.70;;;13.80;;
78288;SDS011;67539;48.752;12.922;2023-03-20T10:00:06;27.90;;;16.13;;
78288;SDS011;67539;48.752;12.922;2023-03-20T10:02:41;15.50;;;14.00;;
78288;SDS011;67539;48.752;12.922;2023-03-20T10:05:18;15.47;;;13.87;;
78288;SDS011;67539;48.752;12.922;2023-03-20T10:07:49;16.33;;;14.73;;
78288;SDS011;67539;48.752;12.922;2023-03-20T10:10:21;15.87;;;14.17;;
78288;SDS011;67539;48.752;12.922;2023-03-20T10:12:59;14.53;;;12.90;;
78288;SDS011;67539;48.752;12.922;2023-03-20T10:15:42;14.00;;;12.60;;
78288;SDS011;67539;48.752;12.922;2023-03-20T10:18:17;17.80;;;16.03;;
78288;SDS011;67539;48.752;12.922;2023-03-20T10:20:53;14.13;;;12.70;;
78288;SDS011;67539;48.752;12.922;2023-03-20T10:23:26;18.97;;;17.07;;
78288;SDS011;67539;48.752;12.922;2023-03-20T10:26:04;14.90;;;13.40;;
78288;SDS011;67539;48.752;12.922;2023-03-20T10:28:39;18.40;;;16.47;;
78288;SDS011;67539;48.752;12.922;2023-03-20T10:31:16;15.97;;;14.37;;
78288;SDS011;67539;48.752;12.922;2023-03-20T10:33:55;15.10;;;13.60;;
78288;SDS011;67539;48.752;12.922;2023-03-20T10:36:34;16.10;;;14.50;;
78288;SDS011;67539;48.752;12.922;2023-03-20T10:39:12;15.10;;;13.60;;
78288;SDS011;67539;48.752;12.922;2023-03-20T10:41:49;13.73;;;12.33;;
78288;SDS011;67539;48.752;12.922;2023-03-20T10:44:22;13.43;;;12.20;;
78288;SDS011;67539;48.752;12.922;2023-03-20T10:46:56;13.30;;;12.00;;
78288;SDS011;67539;48.752;12.922;2023-03-20T10:49:29;13.60;;;12.30;;
78288;SDS011;67539;48.752;12.922;2023-03-20T10:52:03;15.43;;;13.20;;
78288;SDS011;67539;48.752;12.922;2023-03-20T10:54:38;16.23;;;13.00;;
78288;SDS011;67539;48.752;12.922;2023-03-20T10:57:11;17.70;;;15.80;;
78288;SDS011;67539;48.752;12.922;2023-03-20T10:59:46;16.67;;;14.97;;
78288;SDS011;67539;48.752;12.922;2023-03-20T11:02:17;13.30;;;12.00;;
78288;SDS011;67539;48.752;12.922;2023-03-20T11:04:47;18.47;;;16.00;;
78288;SDS011;67539;48.752;12.922;2023-03-20T11:07:18;14.13;;;12.80;;
78288;SDS011;67539;48.752;12.922;2023-03-20T11:10:07;15.53;;;13.77;;
78288;SDS011;67539;48.752;12.922;2023-03-20T11:12:39;21.33;;;14.00;;
78288;SDS011;67539;48.752;12.922;2023-03-20T11:15:22;15.87;;;14.27;;
78288;SDS011;67539;48.752;12.922;2023-03-20T11:17:53;23.70;;;15.37;;
78288;SDS011;67539;48.752;12.922;2023-03-20T11:20:23;15.00;;;13.50;;
78288;SDS011;67539;48.752;12.922;2023-03-20T11:22:56;16.43;;;14.73;;
78288;SDS011;67539;48.752;12.922;2023-03-20T11:25:29;13.90;;;12.50;;
78288;SDS011;67539;48.752;12.922;2023-03-20T11:28:23;12.50;;;11.27;;
78288;SDS011;67539;48.752;12.922;2023-03-20T11:31:01;11.50;;;10.40;;
78288;SDS011;67539;48.752;12.922;2023-03-20T11:33:33;10.87;;;9.80;;
78288;SDS011;67539;48.752;12.922;2023-03-20T11:36:09;9.47;;;8.67;;
78288;SDS011;67539;48.752;12.922;2023-03-20T11:38:46;24.30;;;10.67;;
78288;SDS011;67539;48.752;12.922;2023-03-20T11:41:17;8.90;;;8.10;;
78288;SDS011;67539;48.752;12.922;2023-03-20T11:43:51;8.97;;;8.10;;
78288;SDS011;67539;48.752;12.922;2023-03-20T11:46:20;8.73;;;8.03;;
78288;SDS011;67539;48.752;12.922;2023-03-20T11:49:06;8.83;;;8.03;;
78288;SDS011;67539;48.752;12.922;2023-03-20T11:51:47;9.77;;;8.87;;
78288;SDS011;67539;48.752;12.922;2023-03-20T11:54:17;9.23;;;8.43;;
78288;SDS011;67539;48.752;12.922;2023-03-20T11:56:51;9.43;;;8.63;;
78288;SDS011;67539;48.752;12.922;2023-03-20T11:59:22;9.47;;;8.63;;
78288;SDS011;67539;48.752;12.922;2023-03-20T12:01:53;9.23;;;8.33;;
78288;SDS011;67539;48.752;12.922;2023-03-20T12:04:26;8.70;;;7.90;;
78288;SDS011;67539;48.752;12.922;2023-03-20T12:06:56;9.10;;;8.30;;
78288;SDS011;67539;48.752;12.922;2023-03-20T12:09:31;9.93;;;9.03;;
78288;SDS011;67539;48.752;12.922;2023-03-20T12:12:05;9.00;;;8.30;;
78288;SDS011;67539;48.752;12.922;2023-03-20T12:14:42;12.87;;;11.40;;
78288;SDS011;67539;48.752;12.922;2023-03-20T12:17:19;11.13;;;10.03;;
78288;SDS011;67539;48.752;12.922;2023-03-20T12:20:00;9.00;;;8.10;;
78288;SDS011;67539;48.752;12.922;2023-03-20T12:22:33;10.50;;;9.50;;
78288;SDS011;67539;48.752;12.922;2023-03-20T12:25:06;11.90;;;10.80;;
78288;SDS011;67539;48.752;12.922;2023-03-20T12:27:46;13.10;;;11.73;;
78288;SDS011;67539;48.752;12.922;2023-03-20T12:30:25;11.90;;;10.67;;
78288;SDS011;67539;48.752;12.922;2023-03-20T12:32:59;10.43;;;9.47;;
78288;SDS011;67539;48.752;12.922;2023-03-20T12:35:34;9.13;;;8.33;;
78288;SDS011;67539;48.752;12.922;2023-03-20T12:38:08;8.47;;;7.67;;
78288;SDS011;67539;48.752;12.922;2023-03-20T12:40:47;9.80;;;9.00;;
78288;SDS011;67539;48.752;12.922;2023-03-20T12:43:20;8.27;;;7.57;;
78288;SDS011;67539;48.752;12.922;2023-03-20T12:45:55;9.77;;;8.97;;
78288;SDS011;67539;48.752;12.922;2023-03-20T12:48:35;9.43;;;8.63;;
78288;SDS011;67539;48.752;12.922;2023-03-20T12:51:18;8.93;;;8.23;;
78288;SDS011;67539;48.752;12.922;2023-03-20T12:53:54;8.40;;;7.70;;
78288;SDS011;67539;48.752;12.922;2023-03-20T12:56:46;8.30;;;7.70;;
78288;SDS011;67539;48.752;12.922;2023-03-20T12:59:21;8.10;;;7.40;;
78288;SDS011;67539;48.752;12.922;2023-03-20T13:02:07;8.20;;;7.50;;
78288;SDS011;67539;48.752;12.922;2023-03-20T13:04:50;8.43;;;7.73;;
78288;SDS011;67539;48.752;12.922;2023-03-20T13:07:30;8.73;;;7.93;;
78288;SDS011;67539;48.752;12.922;2023-03-20T13:10:16;7.00;;;6.50;;
78288;SDS011;67539;48.752;12.922;2023-03-20T13:12:50;7.57;;;7.07;;
78288;SDS011;67539;48.752;12.922;2023-03-20T13:15:33;9.63;;;8.73;;
78288;SDS011;67539;48.752;12.922;2023-03-20T13:18:13;9.60;;;8.70;;
78288;SDS011;67539;48.752;12.922;2023-03-20T13:20:47;29.87;;;26.67;;
78288;SDS011;67539;48.752;12.922;2023-03-20T13:23:19;12.90;;;11.73;;
78288;SDS011;67539;48.752;12.922;2023-03-20T13:25:59;11.57;;;10.67;;
78288;SDS011;67539;48.752;12.922;2023-03-20T13:28:37;20.73;;;17.27;;
78288;SDS011;67539;48.752;12.922;2023-03-20T13:31:14;12.23;;;11.10;;
78288;SDS011;67539;48.752;12.922;2023-03-20T13:33:55;10.03;;;9.13;;
78288;SDS011;67539;48.752;12.922;2023-03-20T13:36:33;13.27;;;11.87;;
78288;SDS011;67539;48.752;12.922;2023-03-20T13:39:15;12.43;;;11.23;;
78288;SDS011;67539;48.752;12.922;2023-03-20T13:41:47;10.80;;;9.83;;
78288;SDS011;67539;48.752;12.922;2023-03-20T13:44:17;20.83;;;17.03;;
78288;SDS011;67539;48.752;12.922;2023-03-20T13:46:50;9.07;;;8.17;;
78288;SDS011;67539;48.752;12.922;2023-03-20T13:49:23;9.87;;;8.87;;
78288;SDS011;67539;48.752;12.922;2023-03-20T13:52:00;13.60;;;11.90;;
78288;SDS011;67539;48.752;12.922;2023-03-20T13:54:42;10.77;;;9.77;;
78288;SDS011;67539;48.752;12.922;2023-03-20T13:57:24;10.10;;;9.20;;
78288;SDS011;67539;48.752;12.922;2023-03-20T14:00:05;11.57;;;10.47;;
78288;SDS011;67539;48.752;12.922;2023-03-20T14:02:49;39.37;;;32.63;;
78288;SDS011;67539;48.752;12.922;2023-03-20T14:05:36;9.07;;;8.20;;
78288;SDS011;67539;48.752;12.922;2023-03-20T14:10:53;8.93;;;8.23;;
78288;SDS011;67539;48.752;12.922;2023-03-20T14:13:32;9.70;;;7.43;;
78288;SDS011;67539;48.752;12.922;2023-03-20T14:16:02;7.10;;;6.50;;
78288;SDS011;67539;48.752;12.922;2023-03-20T14:18:34;7.33;;;6.77;;
78288;SDS011;67539;48.752;12.922;2023-03-20T14:21:08;7.70;;;7.10;;
78288;SDS011;67539;48.752;12.922;2023-03-20T14:23:40;6.20;;;5.80;;
78288;SDS011;67539;48.752;12.922;2023-03-20T14:26:18;6.00;;;5.50;;
78288;SDS011;67539;48.752;12.922;2023-03-20T14:28:53;7.30;;;6.70;;
78288;SDS011;67539;48.752;12.922;2023-03-20T14:31:26;11.20;;;6.87;;
78288;SDS011;67539;48.752;12.922;2023-03-20T14:33:59;6.23;;;5.83;;
78288;SDS011;67539;48.752;12.922;2023-03-20T14:36:44;7.23;;;6.53;;
78288;SDS011;67539;48.752;12.922;2023-03-20T14:39:20;6.63;;;6.00;;
78288;SDS011;67539;48.752;12.922;2023-03-20T14:42:05;6.37;;;5.43;;
78288;SDS011;67539;48.752;12.922;2023-03-20T14:44:50;5.97;;;5.57;;
78288;SDS011;67539;48.752;12.922;2023-03-20T14:47:37;9.27;;;8.47;;
78288;SDS011;67539;48.752;12.922;2023-03-20T14:50:13;12.30;;;11.30;;
78288;SDS011;67539;48.752;12.922;2023-03-20T14:52:54;7.60;;;6.90;;
78288;SDS011;67539;48.752;12.922;2023-03-20T14:55:30;8.80;;;8.20;;
78288;SDS011;67539;48.752;12.922;2023-03-20T14:58:01;6.23;;;5.77;;
78288;SDS011;67539;48.752;12.922;2023-03-20T15:00:33;6.53;;;5.93;;
78288;SDS011;67539;48.752;12.922;2023-03-20T15:03:13;6.53;;;5.93;;
78288;SDS011;67539;48.752;12.922;2023-03-20T15:05:43;6.20;;;5.70;;